Time;durP1;ratioP1;P1;durP2;ratioP2;P2;SDS_P1;SDS_P2;PMS_P1;PMS_P2;Temp;Humidity;BMP_temperature;BMP_pressure;BME280_temperature;BME280_humidity;BME280_pressure;Samples;Min_cycle;Max_cycle;Signal;HPM_P1;HPM_P2
2022/04/19 00:01:00;;;;;;;5.13;4.17;;;8.10;99.90;;;-141.84;57.35;17497.63;5011018;28;20232;-58
2022/04/19 00:03:30;;;;;;;4.90;4.40;;;8.00;99.90;;;-141.84;57.76;17455.00;5010588;28;20775;-59
2022/04/19 00:05:58;;;;;;;4.70;4.20;;;7.90;99.90;;;-141.84;58.67;17477.31;5011570;28;20629;-58
2022/04/19 00:08:26;;;;;;;4.27;3.87;;;7.70;99.90;;;-141.84;59.34;17444.84;5010713;28;20229;-58
2022/04/19 00:10:54;;;;;;;4.47;4.07;;;7.60;99.90;;;-141.84;59.69;17440.78;5010844;28;20315;-59
2022/04/19 00:13:23;;;;;;;4.93;4.10;;;7.50;99.90;;;-141.84;59.20;17465.13;5010600;28;20466;-59
2022/04/19 00:15:51;;;;;;;4.20;3.80;;;7.40;99.90;;;-141.84;58.75;17463.09;5012531;28;20280;-59
2022/04/19 00:18:21;;;;;;;3.80;3.50;;;7.40;99.90;;;-141.84;59.34;17416.41;5030015;28;20286;-58
2022/04/19 00:20:50;;;;;;;3.43;3.13;;;7.30;99.90;;;-141.84;59.92;17450.94;5035192;28;20200;-59
2022/04/19 00:23:18;;;;;;;3.57;3.27;;;7.20;99.90;;;-141.84;58.88;17444.84;5034511;28;20234;-58
2022/04/19 00:25:50;;;;;;;3.17;2.87;;;7.10;99.90;;;-141.84;58.88;17469.19;5034610;28;20233;-59
2022/04/19 00:28:18;;;;;;;3.53;3.23;;;7.10;99.90;;;-141.84;59.12;17448.91;5034197;28;20676;-59
2022/04/19 00:30:47;;;;;;;3.73;3.30;;;7.00;99.90;;;-141.84;58.53;17475.28;5034166;28;20774;-59
2022/04/19 00:33:15;;;;;;;3.60;3.30;;;7.00;99.90;;;-141.84;58.15;17481.38;5034363;28;20216;-58
2022/04/19 00:35:44;;;;;;;4.20;3.10;;;7.00;99.90;;;-141.84;58.33;17442.81;5034771;28;20322;-60
2022/04/19 00:38:13;;;;;;;3.47;2.90;;;7.00;99.90;;;-141.84;58.46;17452.97;5034181;28;20315;-60
2022/04/19 00:40:41;;;;;;;4.37;2.97;;;6.90;99.90;;;-141.84;57.89;17489.50;5033836;28;20243;-58
2022/04/19 00:43:11;;;;;;;3.27;2.97;;;6.90;99.90;;;-141.84;58.07;17481.38;5034338;28;20244;-59
2022/04/19 00:45:39;;;;;;;4.53;3.60;;;6.90;99.90;;;-141.84;58.04;17509.81;5034221;28;20329;-60
2022/04/19 00:48:07;;;;;;;3.30;3.00;;;6.90;99.90;;;-141.84;57.90;17489.50;5027984;28;20614;-59
2022/04/19 00:50:35;;;;;;;4.60;3.03;;;6.90;99.90;;;-141.84;57.58;17515.91;5014759;28;20249;-58
2022/04/19 00:53:05;;;;;;;3.40;3.10;;;6.90;99.90;;;-141.84;57.75;17444.84;5014184;28;20307;-59
2022/04/19 00:55:35;;;;;;;3.30;3.00;;;6.90;99.90;;;-141.84;57.89;17489.50;5014313;28;20321;-59
2022/04/19 00:58:06;;;;;;;3.37;2.80;;;6.90;99.90;;;-141.84;58.32;17493.56;5014203;28;20710;-59
2022/04/19 01:00:34;;;;;;;3.10;2.80;;;6.80;99.90;;;-141.84;58.14;17487.47;5014051;28;20229;-59
2022/04/19 01:03:02;;;;;;;4.07;2.97;;;6.80;99.90;;;-141.84;58.11;17465.13;5014564;28;20205;-59
2022/04/19 01:05:33;;;;;;;3.33;2.90;;;6.70;99.90;;;-141.84;57.14;17517.94;5013946;28;20365;-59
2022/04/19 01:08:02;;;;;;;3.60;3.03;;;6.80;99.90;;;-141.84;56.12;17513.88;5013906;28;20421;-58
2022/04/19 01:10:31;;;;;;;3.23;2.93;;;6.90;99.90;;;-141.84;56.83;17493.56;5013834;28;20230;-59
2022/04/19 01:13:17;;;;;;;4.63;3.07;;;6.90;99.90;;;-141.84;57.09;17493.56;5014071;28;20226;-58
2022/04/19 01:15:48;;;;;;;3.10;2.80;;;6.90;99.90;;;-141.84;57.14;17505.75;5013738;28;20503;-59
2022/04/19 01:18:20;;;;;;;3.23;2.93;;;6.90;99.90;;;-141.84;57.30;17477.31;5028783;28;20193;-60
2022/04/19 01:20:49;;;;;;;3.70;2.87;;;6.90;99.90;;;-141.84;57.49;17457.03;5034302;28;20203;-56
2022/04/19 01:23:19;;;;;;;3.70;3.10;;;6.90;99.90;;;-141.84;57.25;17517.94;5033553;28;20639;-58
2022/04/19 01:25:47;;;;;;;2.97;2.70;;;6.80;99.90;;;-141.84;56.87;17493.56;5033529;28;20232;-58
2022/04/19 01:28:16;;;;;;;2.87;2.63;;;6.80;99.90;;;-141.84;57.22;17517.94;5033206;28;20229;-59
2022/04/19 01:30:44;;;;;;;4.33;3.03;;;6.80;99.90;;;-141.84;57.24;17503.72;5033133;28;20251;-60
2022/04/19 01:33:14;;;;;;;4.33;2.87;;;6.80;99.90;;;-141.84;56.24;17519.97;5033453;28;20205;-58
2022/04/19 01:35:42;;;;;;;3.37;2.83;;;6.90;99.90;;;-141.84;54.79;17550.44;5033777;28;20225;-60
2022/04/19 01:38:10;;;;;;;3.43;2.83;;;7.00;99.90;;;-141.84;54.34;17552.47;5032882;28;20764;-61
2022/04/19 01:40:39;;;;;;;2.80;2.50;;;7.10;99.90;;;-141.84;54.95;17562.63;5033056;28;20236;-59
2022/04/19 01:43:07;;;;;;;2.93;2.67;;;7.00;99.90;;;-141.84;53.68;17582.94;5033143;28;20243;-60
2022/04/19 01:45:35;;;;;;;3.10;2.80;;;7.10;99.90;;;-141.84;53.71;17587.00;5032867;28;20659;-61
2022/04/19 01:48:04;;;;;;;3.53;2.70;;;7.10;99.90;;;-141.84;54.25;17593.09;5027273;28;20205;-60
2022/04/19 01:50:32;;;;;;;3.27;2.77;;;7.10;99.90;;;-141.84;54.48;17546.38;5013127;28;20237;-60
2022/04/19 01:53:01;;;;;;;2.43;2.23;;;7.00;99.90;;;-141.84;54.30;17568.72;5013215;28;20256;-60
2022/04/19 01:55:29;;;;;;;4.13;2.90;;;7.00;99.90;;;-141.84;54.27;17552.47;5012910;28;20713;-61
2022/04/19 01:58:00;;;;;;;3.27;2.50;;;6.90;99.90;;;-141.84;53.25;17593.09;5012573;28;20260;-61
2022/04/19 02:00:29;;;;;;;3.10;2.60;;;7.10;99.90;;;-141.84;53.32;17574.81;5012996;28;20655;-59
2022/04/19 02:02:58;;;;;;;2.97;2.50;;;7.10;99.90;;;-141.84;53.30;17564.66;5013389;28;20297;-59
2022/04/19 02:05:26;;;;;;;2.70;2.50;;;7.00;99.90;;;-141.84;53.27;17576.84;5012861;28;20313;-62
2022/04/19 02:07:54;;;;;;;3.17;2.53;;;7.00;99.90;;;-141.84;53.96;17578.88;5012781;28;20232;-60
2022/04/19 02:10:22;;;;;;;3.93;2.90;;;7.00;99.90;;;-141.84;54.43;17552.47;5012693;28;20732;-61
2022/04/19 02:12:51;;;;;;;4.37;2.80;;;6.90;99.90;;;-141.84;54.68;17572.78;5012565;28;20312;-62
2022/04/19 02:15:21;;;;;;;4.00;3.07;;;6.90;99.90;;;-141.84;55.75;17524.03;5025491;28;20224;-60
2022/04/19 02:17:50;;;;;;;3.67;2.90;;;6.70;99.90;;;-141.84;56.73;17562.63;5032766;28;20212;-61
2022/04/19 02:20:19;;;;;;;3.67;3.20;;;6.60;99.90;;;-141.84;56.85;17489.50;5032322;28;20232;-60
2022/04/19 02:22:48;;;;;;;3.97;2.73;;;6.50;99.90;;;-141.84;56.65;17528.09;5032269;28;20320;-60
2022/04/19 02:25:18;;;;;;;3.80;3.40;;;6.50;99.90;;;-141.84;56.84;17509.81;5032353;28;20233;-60
2022/04/19 02:27:47;;;;;;;3.40;3.10;;;6.50;99.90;;;-141.84;56.89;17524.03;5032166;28;20254;-60
2022/04/19 02:30:15;;;;;;;3.80;3.20;;;6.50;99.90;;;-141.84;57.02;17485.44;5032097;28;20205;-61
2022/04/19 02:32:47;;;;;;;3.23;2.93;;;6.50;99.90;;;-141.84;56.77;17519.97;5032470;28;20199;-60
2022/04/19 02:35:18;;;;;;;4.77;3.00;;;6.50;99.90;;;-141.84;57.05;17495.59;5031928;28;20266;-61
2022/04/19 02:37:50;;;;;;;3.17;2.87;;;6.40;99.90;;;-141.84;57.31;17463.09;5031405;28;20336;-60
2022/04/19 02:40:20;;;;;;;3.47;3.17;;;6.40;99.90;;;-141.84;56.96;17505.75;5031989;28;20302;-60
2022/04/19 02:42:50;;;;;;;2.97;2.77;;;6.50;99.90;;;-141.84;57.34;17491.53;5031773;28;20306;-60
2022/04/19 02:45:20;;;;;;;4.47;3.10;;;6.50;99.90;;;-141.84;58.02;17519.97;5032090;28;20212;-61
2022/04/19 02:47:51;;;;;;;3.17;2.87;;;6.40;99.90;;;-141.84;58.67;17461.09;5028249;28;20202;-61
2022/04/19 02:50:19;;;;;;;3.83;3.00;;;6.30;99.90;;;-141.84;58.04;17475.28;5011974;28;20264;-59
2022/04/19 02:52:47;;;;;;;4.10;3.17;;;6.40;99.90;;;-141.84;58.35;17493.56;5011968;28;20311;-59
2022/04/19 02:55:15;;;;;;;4.17;3.43;;;6.40;99.90;;;-141.84;59.04;17461.09;5011952;28;20234;-60
2022/04/19 02:57:43;;;;;;;4.87;3.17;;;6.40;99.90;;;-141.84;58.58;17440.78;5011934;28;20311;-60
2022/04/19 03:00:13;;;;;;;3.97;3.30;;;6.40;99.90;;;-141.84;59.10;17483.41;5012168;28;20207;-60
2022/04/19 03:02:41;;;;;;;3.37;2.93;;;6.40;99.90;;;-141.84;59.60;17469.19;5012088;28;20263;-60
2022/04/19 03:05:11;;;;;;;5.93;3.07;;;6.40;99.90;;;-141.84;59.63;17416.41;5011765;28;20223;-60
2022/04/19 03:07:39;;;;;;;3.60;3.00;;;6.40;99.90;;;-141.84;60.24;17450.94;5011615;28;20312;-60
2022/04/19 03:10:08;;;;;;;3.30;3.00;;;6.30;99.90;;;-141.84;60.86;17420.47;5012594;28;20308;-60
2022/04/19 03:12:36;;;;;;;3.97;3.20;;;6.30;99.90;;;-141.84;60.74;17408.28;5031158;28;20311;-61
2022/04/19 03:15:06;;;;;;;3.37;3.07;;;6.40;99.90;;;-141.84;61.03;17416.41;5032302;28;20309;-60
2022/04/19 03:17:35;;;;;;;4.40;3.30;;;6.40;99.90;;;-141.84;62.35;17418.44;5031419;28;20331;-61
2022/04/19 03:20:07;;;;;;;4.67;3.27;;;6.30;99.90;;;-141.84;62.49;17392.03;5031050;28;20611;-60
2022/04/19 03:28:14;;;;;;;3.97;3.50;;;6.30;99.90;;;-141.84;62.82;17414.38;5030912;28;20723;-58
2022/04/19 03:30:43;;;;;;;4.53;3.70;;;6.30;99.90;;;-141.84;63.48;17375.78;5030913;28;20226;-59
2022/04/19 03:33:11;;;;;;;4.87;3.43;;;6.30;99.90;;;-141.84;62.46;17361.56;5031046;28;20292;-60
2022/04/19 03:35:39;;;;;;;4.17;3.73;;;6.30;99.90;;;-141.84;62.46;17383.91;5031371;28;20205;-59
2022/04/19 03:38:08;;;;;;;4.03;3.63;;;6.20;99.90;;;-141.84;62.87;17402.19;5030767;28;20232;-59
2022/04/19 03:40:37;;;;;;;4.30;3.60;;;6.20;99.90;;;-141.84;62.41;17404.22;5031017;28;20231;-59
2022/04/19 03:43:07;;;;;;;4.20;3.43;;;6.20;99.90;;;-141.84;62.42;17375.78;5030910;28;20230;-59
2022/04/19 03:45:35;;;;;;;3.83;3.40;;;6.30;99.90;;;-141.84;62.61;17394.06;5031293;28;20232;-59
2022/04/19 03:48:05;;;;;;;5.33;3.47;;;6.30;99.90;;;-141.84;62.98;17398.13;5024987;28;20647;-59
2022/04/19 03:50:34;;;;;;;3.37;3.07;;;6.20;99.90;;;-141.84;63.13;17375.78;5011140;28;20614;-59
2022/04/19 03:53:02;;;;;;;3.57;3.13;;;6.20;99.90;;;-141.84;63.03;17351.41;5011024;28;20259;-59
2022/04/19 03:55:31;;;;;;;3.63;3.27;;;6.20;99.90;;;-141.84;62.86;17408.28;5011235;28;20236;-59
2022/04/19 03:57:59;;;;;;;5.00;3.40;;;6.20;99.90;;;-141.84;63.50;17351.41;5010702;28;20312;-59
2022/04/19 04:00:27;;;;;;;3.93;3.30;;;6.20;99.90;;;-141.84;63.14;17357.50;5010833;28;20560;-59
2022/04/19 04:02:55;;;;;;;2.87;2.50;;;6.10;99.90;;;-141.84;62.29;17402.19;5011292;28;20205;-60
2022/04/19 04:05:24;;;;;;;4.10;3.07;;;6.10;99.90;;;-141.84;61.01;17396.09;5010848;28;20264;-58
2022/04/19 04:07:53;;;;;;;3.93;2.97;;;6.20;99.90;;;-141.84;60.89;17416.41;5024137;28;20540;-60
2022/04/19 04:10:21;;;;;;;3.60;2.63;;;6.20;99.90;;;-141.84;59.82;17424.53;5030499;28;20602;-60
2022/04/19 04:12:50;;;;;;;3.70;2.80;;;6.20;99.90;;;-141.84;59.34;17452.97;5030546;28;20228;-57
2022/04/19 04:15:19;;;;;;;2.67;2.47;;;6.20;99.90;;;-141.84;60.01;17406.25;5030744;28;20213;-57
2022/04/19 04:17:47;;;;;;;2.70;2.33;;;6.20;99.90;;;-141.84;59.10;17430.63;5030993;28;20234;-60
2022/04/19 04:20:15;;;;;;;4.07;3.00;;;6.20;99.90;;;-141.84;58.96;17436.72;5030488;28;20330;-60
2022/04/19 04:22:43;;;;;;;2.60;2.40;;;6.20;99.90;;;-141.84;59.06;17428.59;5030569;28;20251;-59
2022/04/19 04:25:11;;;;;;;2.33;2.13;;;6.30;99.90;;;-141.84;57.90;17461.09;5030207;28;20229;-60
2022/04/19 04:27:39;;;;;;;3.13;2.60;;;6.30;99.90;;;-141.84;57.98;17473.25;5030457;28;20309;-60
2022/04/19 04:30:09;;;;;;;3.33;2.60;;;6.30;99.90;;;-141.84;58.33;17444.84;5030970;28;20295;-59
2022/04/19 04:32:37;;;;;;;3.90;2.50;;;6.30;99.90;;;-141.84;58.36;17457.03;5029923;28;20262;-60
2022/04/19 04:35:08;;;;;;;3.03;2.47;;;6.40;99.90;;;-141.84;59.14;17461.09;5030380;28;20668;-59
2022/04/19 04:37:36;;;;;;;3.10;2.77;;;6.30;99.90;;;-141.84;59.60;17416.41;5030351;28;20336;-60
2022/04/19 04:40:05;;;;;;;3.63;2.60;;;6.30;99.90;;;-141.84;59.89;17438.75;5030087;28;20258;-59
2022/04/19 04:42:33;;;;;;;2.97;2.67;;;6.20;99.90;;;-141.84;60.06;17418.44;5030629;28;20227;-59
2022/04/19 04:45:01;;;;;;;3.77;3.00;;;6.10;99.90;;;-141.84;60.78;17424.53;5030780;28;20230;-60
2022/04/19 04:50:16;;;;;;;3.10;2.80;;;6.10;99.90;;;-141.84;60.69;17420.47;5010524;28;20526;-60
2022/04/19 04:52:44;;;;;;;3.37;2.97;;;6.10;99.90;;;-141.84;61.08;17424.53;5010584;28;20240;-59
2022/04/19 04:55:12;;;;;;;3.50;2.60;;;6.10;99.90;;;-141.84;61.14;17385.94;5010617;28;20724;-60
2022/04/19 04:57:39;;;;;;;3.53;2.90;;;6.10;99.90;;;-141.84;60.69;17400.16;5010338;28;20235;-60
2022/04/19 05:00:09;;;;;;;4.33;2.70;;;6.10;99.90;;;-141.84;60.81;17420.47;5011086;28;20202;-60
2022/04/19 05:02:39;;;;;;;3.20;2.90;;;6.10;99.90;;;-141.84;60.69;17410.31;5013030;28;20234;-60
2022/04/19 05:05:08;;;;;;;3.53;2.80;;;6.10;99.90;;;-141.84;60.38;17426.56;5033691;28;20233;-60
2022/04/19 05:07:38;;;;;;;3.03;2.77;;;6.10;99.90;;;-141.84;59.64;17450.94;5034146;28;20228;-60
2022/04/19 05:10:08;;;;;;;3.00;2.57;;;6.10;99.90;;;-141.84;60.34;17416.41;5033626;28;20318;-60
2022/04/19 05:12:36;;;;;;;3.83;2.90;;;6.20;99.90;;;-141.84;59.78;17438.75;5033592;28;20228;-60
2022/04/19 05:15:05;;;;;;;3.53;2.80;;;6.20;99.90;;;-141.84;59.93;17420.47;5034248;28;20193;-60
2022/04/19 05:17:34;;;;;;;3.93;3.20;;;6.30;99.90;;;-141.84;57.85;17473.25;5033638;28;20249;-60
2022/04/19 05:20:05;;;;;;;3.83;3.30;;;6.50;99.90;;;-141.84;57.31;17479.34;5033408;28;20316;-60
2022/04/19 05:22:33;;;;;;;3.47;2.90;;;6.80;99.90;;;-141.84;55.84;17544.34;5032170;28;20259;-59
2022/04/19 05:25:01;;;;;;;3.83;2.97;;;7.10;99.90;;;-141.84;55.07;17524.03;5033325;28;20649;-61
2022/04/19 05:27:29;;;;;;;4.37;3.20;;;7.30;99.90;;;-141.84;54.78;17536.22;5033254;28;20235;-59
2022/04/19 05:29:57;;;;;;;3.47;3.17;;;7.60;99.90;;;-141.84;53.39;17562.63;5033457;28;20567;-60
2022/04/19 05:32:27;;;;;;;4.00;3.40;;;7.60;99.90;;;-141.84;53.77;17558.56;5032966;28;20247;-60
2022/04/19 05:34:55;;;;;;;5.63;3.23;;;7.60;99.90;;;-141.84;53.75;17554.50;5033384;28;20253;-60
2022/04/19 05:37:24;;;;;;;6.07;3.47;;;7.50;99.90;;;-141.84;53.11;17570.75;5033014;28;20224;-60
2022/04/19 05:39:52;;;;;;;4.07;3.37;;;7.60;99.90;;;-141.84;53.42;17536.22;5033043;28;20237;-60
2022/04/19 05:42:20;;;;;;;3.73;3.03;;;7.60;99.90;;;-141.84;52.54;17570.75;5032965;28;20205;-60
2022/04/19 05:44:48;;;;;;;4.23;3.77;;;7.70;99.90;;;-141.84;51.98;17597.16;5033287;28;20220;-60
2022/04/19 05:47:16;;;;;;;5.23;3.80;;;7.70;99.90;;;-141.84;51.69;17591.06;5032665;28;20628;-59
2022/04/19 05:49:44;;;;;;;4.33;3.80;;;7.80;99.90;;;-141.84;51.74;17576.84;5013058;28;20232;-59
2022/04/19 05:52:13;;;;;;;4.67;3.37;;;7.70;99.90;;;-141.84;51.38;17593.09;5013020;28;20233;-60
2022/04/19 05:54:43;;;;;;;6.93;3.37;;;7.80;99.90;;;-141.84;51.08;17619.50;5013270;28;20249;-60
2022/04/19 05:57:11;;;;;;;6.07;3.63;;;7.90;99.90;;;-141.84;51.09;17627.63;5013029;28;20226;-60
2022/04/19 05:59:39;;;;;;;4.43;3.30;;;8.00;99.90;;;-141.84;51.20;17603.25;5020397;28;20216;-60
2022/04/19 06:04:53;;;;;;;3.77;2.93;;;8.00;99.90;;;-141.84;51.18;17611.38;5032916;28;20224;-61
2022/04/19 06:07:21;;;;;;;3.63;3.30;;;7.90;99.90;;;-141.84;51.92;17595.13;5032489;28;20742;-61
2022/04/19 06:09:57;;;;;;;4.20;3.20;;;7.90;99.90;;;-141.84;52.19;17599.19;5032374;28;20718;-60
2022/04/19 06:12:25;;;;;;;5.60;3.20;;;7.90;99.90;;;-141.84;52.21;17558.56;5030319;28;20296;-59
2022/04/19 06:14:53;;;;;;;6.67;3.57;;;7.90;99.90;;;-141.84;51.23;17621.53;5032596;28;20186;-60
2022/04/19 06:17:22;;;;;;;4.30;3.50;;;8.00;99.90;;;-141.84;51.45;17629.66;5031870;28;20233;-59
2022/04/19 06:19:50;;;;;;;4.03;3.20;;;7.90;99.90;;;-141.84;51.26;17609.34;5032149;28;20262;-56
2022/04/19 06:22:18;;;;;;;5.50;3.30;;;7.90;99.90;;;-141.84;51.64;17601.22;5032006;28;20231;-55
2022/04/19 06:24:46;;;;;;;6.10;3.53;;;7.80;99.90;;;-141.84;51.46;17613.41;5032202;28;20225;-54
2022/04/19 06:27:15;;;;;;;3.57;2.90;;;7.80;99.90;;;-141.84;52.16;17605.28;5032148;28;20201;-52
2022/04/19 06:29:43;;;;;;;5.40;3.53;;;7.70;99.90;;;-141.84;52.16;17631.69;5032777;28;20517;-55
2022/04/19 06:32:12;;;;;;;3.37;3.07;;;7.80;99.90;;;-141.84;52.54;17631.69;5031867;28;20233;-54
2022/04/19 06:34:40;;;;;;;3.60;2.70;;;7.90;99.90;;;-141.84;52.79;17597.16;5031914;28;20743;-56
2022/04/19 06:37:08;;;;;;;4.40;3.07;;;7.80;99.90;;;-141.84;52.66;17591.06;5040418;28;20659;-55
2022/04/19 06:39:36;;;;;;;3.57;3.00;;;8.00;99.90;;;-141.84;52.09;17603.25;5052109;28;20224;-56
2022/04/19 06:42:05;;;;;;;3.93;2.90;;;8.10;99.90;;;-141.84;52.20;17605.28;5052233;28;20208;-58
2022/04/19 06:44:35;;;;;;;3.90;3.00;;;8.00;99.90;;;-141.84;51.92;17580.91;5051276;28;20235;-57
2022/04/19 06:47:03;;;;;;;3.57;3.27;;;8.00;99.90;;;-141.84;51.64;17589.03;5046479;28;20233;-59
2022/04/19 06:49:31;;;;;;;5.17;3.20;;;8.10;99.90;;;-141.84;52.25;17556.53;5013680;28;20233;-59
2022/04/19 06:51:59;;;;;;;5.30;3.30;;;8.00;99.90;;;-141.84;52.79;17570.75;5012146;28;20232;-59
2022/04/19 06:54:27;;;;;;;3.67;3.10;;;8.00;99.90;;;-141.84;53.18;17578.88;5011718;28;20237;-61
2022/04/19 06:56:55;;;;;;;3.83;2.83;;;7.90;99.90;;;-141.84;53.31;17570.75;5027297;28;20304;-61
2022/04/19 06:59:23;;;;;;;4.83;3.20;;;7.80;99.90;;;-141.84;53.22;17578.88;5031231;28;20719;-61
2022/04/19 07:01:52;;;;;;;4.33;3.50;;;7.80;99.90;;;-141.84;52.79;17574.81;5031322;28;20605;-61
2022/04/19 07:04:20;;;;;;;4.20;3.60;;;7.80;99.90;;;-141.84;52.91;17601.22;5031035;28;20241;-59
2022/04/19 07:06:49;;;;;;;5.10;2.93;;;7.90;99.90;;;-141.84;52.77;17562.63;5031280;28;20290;-57
2022/04/19 07:09:17;;;;;;;4.97;3.53;;;7.90;99.90;;;-141.84;52.80;17570.75;5031034;28;20614;-58
2022/04/19 07:11:45;;;;;;;3.73;3.23;;;8.00;99.90;;;-141.84;51.57;17607.31;5031594;28;20670;-61
2022/04/19 07:14:13;;;;;;;3.80;3.50;;;8.10;99.90;;;-141.84;52.44;17570.75;5030639;28;20227;-59
2022/04/19 07:16:41;;;;;;;3.67;3.10;;;8.10;99.90;;;-141.84;52.04;17597.16;5029190;28;20230;-59
2022/04/19 07:19:10;;;;;;;4.40;3.40;;;8.20;99.90;;;-141.84;51.77;17584.97;5010902;28;20698;-56
2022/04/19 07:27:24;;;;;;;4.30;3.27;;;8.70;99.90;;;-141.84;47.54;17719.03;5016928;28;20577;-60
2022/04/19 07:29:52;;;;;;;3.70;3.33;;;9.30;99.90;;;-141.84;45.90;17755.59;5011940;28;20207;-61
2022/04/19 07:32:20;;;;;;;3.40;3.10;;;9.70;99.90;;;-141.84;47.50;17712.94;5010762;28;20248;-54
2022/04/19 07:34:51;;;;;;;4.53;3.10;;;9.50;99.90;;;-141.84;48.69;17676.38;5011143;28;20659;-56
2022/04/19 07:37:19;;;;;;;3.87;3.20;;;9.30;99.90;;;-141.84;49.17;17688.56;5020962;28;20770;-60
2022/04/19 07:39:47;;;;;;;4.60;3.00;;;9.30;99.90;;;-141.84;49.18;17684.50;5031088;28;20249;-61
2022/04/19 07:42:15;;;;;;;4.87;3.77;;;9.20;99.90;;;-141.84;48.81;17656.06;5030741;28;20297;-59
2022/04/19 07:44:44;;;;;;;6.47;3.47;;;9.10;99.90;;;-141.84;49.60;17656.06;5031724;28;20201;-60
2022/04/19 07:47:14;;;;;;;5.40;3.23;;;9.00;99.90;;;-141.84;49.71;17629.66;5030773;28;20225;-59
2022/04/19 07:49:42;;;;;;;4.53;3.33;;;8.90;99.90;;;-141.84;49.86;17645.91;5011101;28;20230;-59
2022/04/19 07:52:11;;;;;;;3.40;3.10;;;8.90;99.90;;;-141.84;49.69;17662.16;5018068;28;20228;-59
2022/04/19 07:54:39;;;;;;;4.47;3.50;;;8.90;99.90;;;-141.84;49.68;17666.22;5030933;28;20232;-60
2022/04/19 07:57:08;;;;;;;3.83;3.23;;;8.90;99.90;;;-141.84;49.81;17652.00;5031056;28;20736;-60
2022/04/19 07:59:36;;;;;;;4.67;3.40;;;9.00;99.90;;;-141.84;49.60;17656.06;5030255;28;20291;-60
2022/04/19 08:02:05;;;;;;;5.63;3.43;;;9.00;99.90;;;-141.84;49.19;17682.47;5030723;28;20322;-60
2022/04/19 08:04:33;;;;;;;4.10;3.70;;;9.00;99.90;;;-141.84;49.66;17643.88;5030418;28;20260;-60
2022/04/19 08:07:03;;;;;;;5.53;3.60;;;9.10;99.90;;;-141.84;49.00;17647.94;5030524;28;20573;-60
2022/04/19 08:09:32;;;;;;;4.63;3.00;;;9.20;99.90;;;-141.84;49.38;17645.91;5030448;28;20213;-60
2022/04/19 08:12:00;;;;;;;4.27;3.87;;;9.20;99.90;;;-141.84;47.94;17712.94;5030516;28;20395;-60
2022/04/19 08:14:28;;;;;;;4.13;3.30;;;9.40;99.90;;;-141.84;46.97;17714.97;5029859;28;20313;-59
2022/04/19 08:16:56;;;;;;;5.47;3.90;;;9.50;99.90;;;-141.84;46.26;17755.59;5026759;28;20232;-60
2022/04/19 08:19:24;;;;;;;4.20;3.53;;;9.60;99.90;;;-141.84;46.25;17749.50;5025639;28;20313;-60
2022/04/19 08:21:52;;;;;;;5.77;3.90;;;9.60;99.90;;;-141.84;45.07;17802.31;5030685;28;20314;-60
2022/04/19 08:24:20;;;;;;;4.70;3.73;;;9.60;99.90;;;-141.84;45.24;17779.97;5030812;28;20292;-59
2022/04/19 08:26:49;;;;;;;4.53;3.90;;;9.60;99.90;;;-141.84;45.82;17777.94;5031286;28;20290;-60
2022/04/19 08:29:17;;;;;;;5.43;3.77;;;9.60;99.90;;;-141.84;44.42;17814.50;5030226;28;20284;-59
2022/04/19 08:31:45;;;;;;;4.93;4.07;;;9.80;99.90;;;-141.84;44.62;17822.63;5030400;28;20301;-59
2022/04/19 08:34:14;;;;;;;4.97;3.83;;;9.90;99.90;;;-141.84;42.99;17822.63;5030146;28;20229;-59
2022/04/19 08:36:43;;;;;;;4.67;3.43;;;10.00;99.90;;;-141.84;43.06;17863.25;5031458;28;20228;-60
2022/04/19 08:39:11;;;;;;;5.93;3.87;;;10.00;99.90;;;-141.84;42.89;17865.28;5033873;28;20736;-60
2022/04/19 08:41:40;;;;;;;5.37;4.00;;;10.10;99.90;;;-141.84;43.30;17851.06;5034646;28;20240;-60
2022/04/19 08:44:11;;;;;;;5.97;4.00;;;10.10;99.90;;;-141.84;42.80;17883.56;5035613;28;20665;-59
2022/04/19 08:46:40;;;;;;;5.33;3.90;;;10.20;99.90;;;-141.84;42.43;17879.50;5034823;28;20701;-60
2022/04/19 08:49:10;;;;;;;4.80;3.70;;;10.30;99.90;;;-141.84;41.99;17893.72;5032338;28;20217;-61
2022/04/19 08:51:41;;;;;;;5.43;4.20;;;10.30;99.90;;;-141.84;42.06;17865.28;5034235;28;20230;-58
2022/04/19 08:59:43;;;;;;;4.10;3.57;;;10.50;99.90;;;-141.84;41.76;17940.47;5034243;28;20228;-59
2022/04/19 09:02:21;;;;;;;4.87;3.90;;;10.60;99.90;;;-141.84;41.89;17928.28;5034790;28;20225;-59
2022/04/19 09:04:49;;;;;;;4.60;3.73;;;10.70;99.90;;;-141.84;41.53;17924.22;5034223;28;20644;-60
2022/04/19 09:10:28;;;;;;;6.00;3.70;;;10.80;99.90;;;-141.84;41.03;17981.09;5027839;28;20218;-59
2022/04/19 09:13:02;;;;;;;5.77;3.87;;;10.70;99.90;;;-141.84;41.27;17938.44;5033663;28;20226;-60
2022/04/19 09:15:37;;;;;;;5.87;4.30;;;10.80;99.90;;;-141.84;40.98;17966.88;5033992;28;20249;-61
2022/04/19 09:18:14;;;;;;;5.90;4.20;;;10.80;99.90;;;-141.84;39.55;18027.81;5030132;28;20285;-60
2022/04/19 09:20:42;;;;;;;4.90;3.93;;;10.90;99.90;;;-141.84;39.78;17993.28;5014366;28;20301;-59
2022/04/19 09:23:11;;;;;;;5.83;4.13;;;11.00;99.90;;;-141.84;40.33;18013.59;5014009;28;20231;-58
2022/04/19 09:25:39;;;;;;;5.70;4.23;;;11.10;99.90;;;-141.84;38.93;18023.75;5013779;28;20305;-60
2022/04/19 09:28:20;;;;;;;6.00;4.23;;;11.20;99.90;;;-141.84;38.94;18048.13;5013983;28;20306;-60
2022/04/19 09:30:53;;;;;;;5.57;4.20;;;11.30;99.90;;;-141.84;38.88;18046.09;5014212;28;20305;-60
2022/04/19 09:33:22;;;;;;;5.27;4.67;;;11.20;99.90;;;-141.84;38.29;18070.47;5022038;28;20212;-60
2022/04/19 09:35:53;;;;;;;6.27;4.40;;;11.30;99.90;;;-141.84;38.52;18011.56;5034034;28;20197;-60
2022/04/19 09:38:36;;;;;;;6.03;4.10;;;11.30;99.90;;;-141.84;38.96;18062.34;5033353;28;20234;-60
2022/04/19 09:41:05;;;;;;;7.33;4.83;;;11.20;99.90;;;-141.84;38.77;18017.66;5033359;28;20315;-60
2022/04/19 09:44:06;;;;;;;5.07;4.33;;;11.20;99.90;;;-141.84;39.42;18009.53;5033219;28;20249;-60
2022/04/19 09:46:37;;;;;;;5.03;4.03;;;11.00;99.90;;;-141.84;39.01;18048.13;5033427;28;20309;-62
2022/04/19 09:49:06;;;;;;;6.23;4.53;;;11.10;99.90;;;-141.84;38.56;18078.59;5018598;28;20241;-60
2022/04/19 09:51:37;;;;;;;5.57;4.00;;;11.30;99.90;;;-141.84;37.58;18137.50;5013742;28;20226;-60
2022/04/19 09:54:06;;;;;;;6.30;4.20;;;11.40;99.90;;;-141.84;38.18;18078.59;5013795;28;20237;-60
2022/04/19 09:56:36;;;;;;;6.33;3.93;;;11.40;99.90;;;-141.84;37.67;18107.03;5013724;28;20678;-60
2022/04/19 09:59:24;;;;;;;6.37;4.27;;;11.50;99.90;;;-141.84;38.31;18072.50;5012997;28;20254;-60
2022/04/19 10:10:13;;;;;;;7.83;4.63;;;11.50;99.90;;;-141.84;37.57;18113.13;5032963;28;20652;-60
2022/04/19 10:12:44;;;;;;;5.60;4.00;;;11.60;99.90;;;-141.84;37.25;18129.38;5032709;28;20257;-60
2022/04/19 10:15:13;;;;;;;5.97;4.37;;;11.70;99.90;;;-141.84;37.53;18117.19;5032918;28;20198;-60
2022/04/19 10:17:42;;;;;;;5.30;4.70;;;11.80;99.90;;;-141.84;37.67;18115.16;5033348;28;20301;-61
2022/04/19 10:20:13;;;;;;;5.80;4.03;;;11.90;99.90;;;-141.84;37.85;18090.78;5032522;28;20320;-61
2022/04/19 10:22:48;;;;;;;6.60;4.13;;;11.90;99.90;;;-141.84;37.43;18149.69;5032682;28;20240;-60
2022/04/19 10:25:17;;;;;;;6.53;4.53;;;12.10;99.90;;;-141.84;37.12;18149.69;5032327;28;20300;-60
2022/04/19 10:27:49;;;;;;;7.30;4.90;;;12.10;99.90;;;-141.84;36.54;18151.72;5032610;28;20596;-59
2022/04/19 10:30:20;;;;;;;5.70;3.60;;;12.00;99.90;;;-141.84;35.81;18212.66;5032540;28;20194;-61
2022/04/19 10:32:49;;;;;;;5.53;4.03;;;12.10;99.90;;;-141.84;35.36;18222.81;5032656;28;20217;-61
2022/04/19 10:35:17;;;;;;;5.20;4.10;;;12.00;99.90;;;-141.84;35.48;18232.97;5032356;28;20226;-61
2022/04/19 10:37:49;;;;;;;6.20;4.40;;;12.00;99.90;;;-141.84;35.69;18208.59;5032434;28;20774;-59
2022/04/19 10:40:22;;;;;;;4.57;3.83;;;12.10;99.90;;;-141.84;36.36;18192.34;5031763;28;20719;-59
2022/04/19 10:43:14;;;;;;;4.80;3.90;;;12.10;99.90;;;-141.84;35.63;18204.53;5032481;28;20222;-60
2022/04/19 10:45:46;;;;;;;5.37;3.93;;;12.20;99.90;;;-141.84;35.87;18226.88;5032154;28;20234;-60
2022/04/19 10:48:16;;;;;;;6.20;3.90;;;12.30;99.90;;;-141.84;35.56;18245.19;5024652;28;20607;-59
2022/04/19 10:50:50;;;;;;;17.73;7.87;;;12.30;99.90;;;-141.84;35.57;18226.88;5012602;28;20222;-59
2022/04/19 10:53:31;;;;;;;4.20;3.80;;;12.40;99.90;;;-141.84;34.74;18277.69;5012216;28;20729;-60